Latest Weather Observations for Kempsey Airport

IDN60801

Issued at 7:35 pm EST Thursday 17 April 2014 (issued every 30 minutes, with the page automatically refreshed every 10 minutes)

About weather observations | Map of weather stations | Latest weather observations for NSW | Other Formats
Station Details ID: 059007 Name: KEMPSEY AIRPORT AWS Lat: -31.07 Lon: 152.77 Height: 13.0 m
Data from the previous 72 hours. | See also: Recent months for locations in New South Wales
Date/Time
EST
Temp
°C
App
Temp
°C
Dew
Point
Rel
Hum
%
Delta-T
°C
Wind Press
QNH
hPa
Press
MSL
hPa
Rain
since 9 am
mm
Dir
 
Spd
km/h
Gust
km/h
Spd
kts
Gust
kts
17/07:30pm 17.2 15.9 13.7 80 2.0 SSW 13 17 7 9 1017.8 - 0.0
17/07:00pm 17.0 16.0 13.5 80 2.0 SSW 11 15 6 8 1017.5 1017.5 0.0
17/06:30pm 18.2 17.0 14.1 77 2.4 SSE 13 19 7 10 1017.1 - 0.0
17/06:00pm 18.7 17.6 14.4 76 2.5 SSE 13 19 7 10 1016.9 1016.9 0.0
17/05:30pm 19.5 17.6 14.1 71 3.1 SSE 17 20 9 11 1016.5 - 0.0
17/05:00pm 21.1 18.0 10.3 50 5.9 SSE 17 20 9 11 1016.1 1016.1 0.0
17/04:30pm 22.2 19.5 11.6 51 5.9 S 17 24 9 13 1015.8 - 0.0
17/04:00pm 22.0 20.0 11.4 51 5.9 SSE 13 17 7 9 1015.7 1015.6 0.0
17/03:30pm 22.7 19.7 10.8 47 6.6 SSE 17 22 9 12 1015.6 - 0.0
17/03:00pm 24.1 20.3 8.9 38 8.2 SSW 19 28 10 15 1015.5 1015.4 0.0
17/02:30pm 24.6 19.5 7.7 34 8.9 S 24 30 13 16 1015.5 - 0.0
17/02:00pm 24.2 20.4 9.0 38 8.2 S 19 28 10 15 1015.7 1015.6 0.0
17/01:30pm 25.1 21.5 10.6 40 8.1 S 20 28 11 15 1015.8 - 0.0
17/01:00pm 24.2 21.2 10.5 42 7.6 SSW 17 28 9 15 1016.1 1016.1 0.0
17/12:30pm 24.0 20.1 9.6 40 7.8 SSW 20 33 11 18 1016.5 - 0.0
17/12:00pm 23.9 19.9 10.6 43 7.4 SW 22 33 12 18 1016.9 1016.9 0.0
17/11:30am 23.5 19.5 10.6 44 7.1 SSW 22 32 12 17 1017.4 - 0.0
17/11:00am 23.3 18.7 9.7 42 7.4 SSW 24 30 13 16 1017.9 1017.9 0.0
17/10:30am 23.4 20.0 10.5 44 7.1 SSW 19 26 10 14 1018.0 - 0.0
17/10:00am 22.6 18.9 9.4 43 7.1 SW 19 28 10 15 1018.2 1018.2 0.0
17/09:30am 21.5 20.4 11.8 54 5.4 WNW 9 13 5 7 1018.2 - 0.0
17/09:00am 20.5 19.6 12.5 60 4.5 W 9 13 5 7 1018.4 1018.4 0.0
17/08:30am 18.8 17.5 12.5 67 3.5 WNW 11 15 6 8 1018.5 - 0.0
17/08:00am 17.3 15.5 12.2 72 2.8 WNW 13 17 7 9 1018.4 1018.4 0.0
17/07:30am 15.2 12.4 11.4 78 2.0 WNW 17 20 9 11 1018.1 - 0.0
17/07:00am 13.5 11.7 10.9 84 1.4 WNW 11 15 6 8 1018.0 1018.0 0.0
17/06:30am 12.5 11.4 10.6 88 1.0 W 7 11 4 6 1017.6 - 0.0
17/06:00am 12.7 10.9 10.8 88 1.0 WNW 11 15 6 8 1017.2 1017.2 0.0
17/05:30am 12.6 9.6 10.7 88 1.0 WNW 17 20 9 11 1016.9 - 0.0
17/05:00am 12.6 9.6 10.7 88 1.0 WNW 17 20 9 11 1017.0 1017.0 0.0
17/04:30am 12.6 10.8 10.7 88 1.0 WNW 11 17 6 9 1016.8 - 0.0
17/04:00am 13.1 10.6 11.0 87 1.1 WNW 15 17 8 9 1016.7 1016.7 0.0
17/03:30am 13.1 11.0 11.0 87 1.1 WNW 13 15 7 8 1016.8 - 0.0
17/03:00am 13.0 11.2 10.9 87 1.1 WNW 11 13 6 7 1016.7 1016.7 0.0
17/02:30am 13.4 10.5 11.1 86 1.2 WNW 17 20 9 11 1016.7 - 0.0
17/02:00am 13.7 10.5 11.2 85 1.3 WNW 19 20 10 11 1016.7 1016.7 0.0
17/01:30am 14.1 12.8 11.3 83 1.5 W 9 13 5 7 1017.0 - 0.0
17/01:00am 14.6 12.6 11.6 82 1.6 NW 13 19 7 10 1017.2 1017.2 0.0
17/12:30am 15.9 13.9 11.5 75 2.4 W 13 17 7 9 1017.3 - 0.0
17/12:00am 16.2 14.4 12.0 76 2.3 W 13 17 7 9 1017.3 1017.3 0.0
 
Date/Time
EST
Temp
°C
App
Temp
°C
Dew
Point
Rel
Hum
%
Delta-T
°C
Wind Press
QNH
hPa
Press
MSL
hPa
Rain
since 9 am
mm
Dir
 
Spd
km/h
Gust
km/h
Spd
kts
Gust
kts
16/11:30pm 15.3 13.8 11.9 80 1.8 W 11 15 6 8 1017.5 - 0.0
16/11:00pm 13.8 13.5 11.3 85 1.3 W 4 9 2 5 1017.6 1017.6 0.0
16/10:30pm 13.9 14.1 10.7 81 1.7 CALM 0 0 0 0 1017.8 - 0.0
16/10:00pm 14.6 15.1 11.6 82 1.6 CALM 0 0 0 0 1017.9 1017.9 0.0
16/09:30pm 14.4 13.9 11.9 85 1.3 WNW 6 7 3 4 1017.7 - 0.0
16/09:00pm 14.5 14.0 10.9 79 1.9 WSW 4 7 2 4 1017.7 1017.7 0.0
16/08:30pm 15.7 15.0 11.9 78 2.1 NW 7 9 4 5 1017.4 - 0.0
16/08:00pm 15.2 15.2 11.0 76 2.2 W 2 7 1 4 1017.2 1017.2 0.0
16/07:30pm 16.7 15.6 12.0 74 2.6 SW 9 15 5 8 1016.9 - 0.0
16/07:00pm 16.8 15.6 11.5 71 2.9 SW 9 11 5 6 1016.8 1016.8 0.0
16/06:30pm 17.9 16.0 11.9 68 3.3 SSW 13 17 7 9 1016.5 - 0.0
16/06:00pm 18.4 16.2 12.2 67 3.4 SW 15 19 8 10 1016.3 1016.3 0.0
16/05:30pm 19.4 16.1 11.7 61 4.3 SSW 20 26 11 14 1016.0 - 0.0
16/05:00pm 19.7 16.9 11.2 58 4.7 S 17 22 9 12 1015.9 1015.9 0.0
16/04:30pm 21.4 18.4 12.5 57 5.0 S 20 32 11 17 1015.6 - 0.0
16/04:00pm 23.1 19.9 13.0 53 5.8 SW 22 32 12 17 1015.3 1015.2 0.0
16/03:30pm 22.4 19.8 13.2 56 5.3 SSW 19 26 10 14 1015.4 - 0.0
16/03:00pm 22.8 19.2 13.0 54 5.6 S 24 35 13 19 1015.4 1015.3 0.0
16/02:30pm 23.0 19.4 12.0 50 6.2 SSW 22 37 12 20 1015.4 - 0.0
16/02:00pm 22.7 18.1 13.5 56 5.3 SSW 30 41 16 22 1015.4 1015.3 0.0
16/01:30pm 24.6 21.0 13.2 49 6.6 SW 24 35 13 19 1015.2 - 0.0
16/01:00pm 24.3 21.4 12.9 49 6.6 SSW 20 28 11 15 1015.3 1015.2 0.0
16/12:30pm 24.2 21.5 13.4 51 6.3 SSW 20 28 11 15 1015.8 - 0.0
16/12:00pm 23.9 20.1 12.5 49 6.5 SW 24 33 13 18 1016.2 1016.2 0.0
16/11:30am 22.8 19.6 13.0 54 5.6 SSW 22 28 12 15 1016.7 - 0.0
16/11:00am 21.9 18.7 13.0 57 5.1 SSW 22 30 12 16 1017.2 1017.2 0.0
16/10:30am 21.5 18.8 12.9 58 4.9 SSW 19 32 10 17 1017.5 - 0.0
16/10:00am 21.6 20.2 13.5 60 4.7 SSW 13 20 7 11 1017.6 1017.6 0.0
16/09:30am 20.9 18.9 13.8 64 4.1 SSW 17 24 9 13 1017.6 - 0.0
16/09:00am 20.6 17.8 13.3 63 4.2 SSW 20 30 11 16 1017.7 1017.7 0.0
16/08:30am 20.9 19.6 13.8 64 4.1 SW 13 15 7 8 1017.2 - 0.0
16/08:00am 19.1 17.0 13.5 70 3.2 SW 17 24 9 13 1017.1 1017.1 0.0
16/07:30am 17.8 15.5 13.1 74 2.6 SW 17 24 9 13 1017.1 - 0.0
16/07:00am 17.4 15.5 13.1 76 2.4 SW 15 19 8 10 1016.9 1016.9 0.0
16/06:30am 15.7 15.4 13.2 85 1.4 SW 7 11 4 6 1016.7 - 0.0
16/06:00am 14.9 14.6 12.8 87 1.2 WNW 6 7 3 4 1016.4 1016.4 0.0
16/05:30am 15.2 14.7 12.7 85 1.4 W 7 9 4 5 1016.3 - 0.0
16/05:00am 15.4 16.2 12.5 83 1.6 CALM 0 7 0 4 1016.2 1016.2 0.0
16/04:30am 15.6 16.4 12.4 81 1.8 CALM 0 6 0 3 1016.2 - 0.0
16/04:00am 15.8 14.6 12.9 83 1.6 WSW 11 13 6 7 1015.9 1015.9 0.0
16/03:30am 15.9 15.5 13.0 83 1.6 WSW 7 9 4 5 1015.9 - 0.0
16/03:00am 16.0 15.2 12.9 82 1.7 W 9 11 5 6 1015.8 1015.7 0.0
16/02:30am 15.5 15.1 12.4 82 1.7 WSW 6 7 3 4 1015.8 - 0.0
16/02:00am 15.5 15.0 12.6 83 1.6 W 7 9 4 5 1016.0 1016.0 0.0
16/01:30am 15.2 15.9 12.3 83 1.6 CALM 0 0 0 0 1016.4 - 0.0
16/01:00am 15.5 15.5 12.3 81 1.7 W 4 6 2 3 1016.7 1016.7 0.0
16/12:30am 15.3 14.8 12.2 82 1.7 W 6 7 3 4 1017.1 - 0.0
16/12:00am 15.3 14.2 11.9 80 1.8 WSW 9 11 5 6 1017.1 1017.1 0.0
 
Date/Time
EST
Temp
°C
App
Temp
°C
Dew
Point
Rel
Hum
%
Delta-T
°C
Wind Press
QNH
hPa
Press
MSL
hPa
Rain
since 9 am
mm
Dir
 
Spd
km/h
Gust
km/h
Spd
kts
Gust
kts
15/11:30pm 15.8 15.1 12.0 78 2.1 SW 7 13 4 7 1017.2 - 0.0
15/11:00pm 16.3 15.6 11.9 75 2.4 SW 7 11 4 6 1017.5 1017.5 0.0
15/10:30pm 17.0 15.2 12.1 73 2.7 SW 13 17 7 9 1017.7 - 0.0
15/10:00pm 17.8 16.6 12.7 72 2.8 SSW 11 13 6 7 1017.9 1017.9 0.0
15/09:30pm 18.1 17.3 12.8 71 3.0 SSW 9 13 5 7 1018.2 - 0.0
15/09:00pm 18.4 15.5 12.8 70 3.1 SSW 20 26 11 14 1018.0 1018.0 0.0
15/08:30pm 18.4 16.6 13.3 72 2.9 SSW 15 20 8 11 1017.9 - 0.0
15/08:00pm 18.6 17.9 13.2 71 3.0 SSW 9 15 5 8 1017.8 1017.8 0.0
15/07:30pm 18.8 17.4 13.4 71 3.1 S 13 17 7 9 1017.7 - 0.0
15/07:00pm 19.1 18.2 13.7 71 3.1 S 11 17 6 9 1017.4 1017.4 0.0
15/06:30pm 19.2 17.8 13.4 69 3.3 S 13 17 7 9 1017.1 - 0.0
15/06:00pm 19.5 18.0 13.0 66 3.7 S 13 20 7 11 1016.8 1016.8 0.0
15/05:30pm 20.1 19.0 13.1 64 4.0 SE 11 15 6 8 1016.4 - 0.0
15/05:00pm 20.8 19.5 12.5 59 4.7 SE 11 15 6 8 1016.1 1016.1 0.0
15/04:30pm 21.6 19.5 11.3 52 5.7 SE 13 19 7 10 1016.1 - 0.0
15/04:00pm 23.0 20.4 9.4 42 7.3 SE 13 17 7 9 1016.0 1016.0 0.0
15/03:30pm 23.3 20.0 8.2 38 8.0 SE 15 24 8 13 1015.9 - 0.0
15/03:00pm 23.5 19.5 8.4 38 8.0 S 19 26 10 14 1016.1 1016.1 0.0
15/02:30pm 23.6 19.2 10.3 43 7.3 S 24 30 13 16 1016.2 - 0.0
15/02:00pm 23.5 20.9 10.6 44 7.1 SSE 15 26 8 14 1016.3 1016.3 0.0
15/01:30pm 22.5 17.5 10.9 48 6.4 S 28 35 15 19 1016.4 - 0.0
15/01:00pm 23.3 19.5 9.7 42 7.4 S 20 32 11 17 1016.6 1016.6 0.0
15/12:30pm 23.7 20.1 10.7 44 7.2 S 20 28 11 15 1017.1 - 0.0
15/12:00pm 22.4 18.2 9.9 45 6.8 SSW 22 32 12 17 1017.6 1017.6 0.0
15/11:30am 21.9 18.3 11.9 53 5.6 S 22 35 12 19 1018.1 - 0.0
15/11:00am 22.9 18.9 11.9 50 6.2 S 24 33 13 18 1018.3 1018.3 0.0
15/10:30am 22.9 19.9 12.5 52 5.9 S 20 32 11 17 1018.7 - 0.0
15/10:00am 22.3 19.8 13.6 58 5.0 SW 19 24 10 13 1018.8 1018.8 0.0
15/09:30am 21.4 19.1 13.1 59 4.7 SW 17 26 9 14 1019.1 - 0.0
15/09:00am 20.3 18.2 13.7 66 3.8 SW 17 20 9 11 1019.2 1019.2 0.0
15/08:30am 19.9 18.0 12.9 64 4.0 SW 15 20 8 11 1019.2 - 0.0
15/08:00am 18.9 17.2 13.5 71 3.1 SSW 15 20 8 11 1019.1 1019.1 0.0
15/07:30am 18.3 16.9 13.4 73 2.8 WSW 13 19 7 10 1018.8 - 0.0
15/07:00am 17.0 16.3 13.3 79 2.1 WSW 9 11 5 6 1018.6 1018.6 0.0
15/06:30am 15.5 15.2 13.3 87 1.2 WSW 7 11 4 6 1018.4 - 0.0
15/06:00am 14.9 13.4 11.9 82 1.6 SW 11 13 6 7 1018.2 1018.2 0.0
15/05:30am 15.8 14.8 12.2 79 2.0 S 9 13 5 7 1018.2 - 0.0
15/05:00am 16.9 15.6 12.6 76 2.4 SSW 11 13 6 7 1018.0 1018.0 0.0
15/04:30am 17.0 15.4 12.9 77 2.3 SSW 13 20 7 11 1017.7 - 0.0
15/04:00am 16.7 16.4 13.2 80 2.0 SW 7 11 4 6 1017.6 1017.6 0.0
15/03:30am 16.8 15.8 13.5 81 1.9 SSW 11 15 6 8 1017.9 - 0.0
15/03:00am 16.6 14.9 13.7 83 1.6 SW 15 20 8 11 1017.9 1017.9 0.0
15/02:30am 14.7 14.6 13.2 91 0.8 W 6 9 3 5 1017.9 - 0.0
15/02:00am 13.3 12.7 11.7 90 0.9 W 6 9 3 5 1018.5 1018.5 0.0
15/01:30am 14.4 14.0 13.0 91 0.8 WNW 7 9 4 5 1018.3 - 0.0
15/01:00am 14.4 14.0 13.1 92 0.7 WSW 7 9 4 5 1018.6 1018.6 0.0
15/12:30am 14.0 14.8 12.4 90 0.9 CALM 0 0 0 0 1018.7 - 0.0
15/12:00am 14.4 15.3 12.8 90 0.9 CALM 0 0 0 0 1018.6 1018.6 0.0
 
Date/Time
EST
Temp
°C
App
Temp
°C
Dew
Point
Rel
Hum
%
Delta-T
°C
Wind Press
QNH
hPa
Press
MSL
hPa
Rain
since 9 am
mm
Dir
 
Spd
km/h
Gust
km/h
Spd
kts
Gust
kts
14/11:30pm 14.3 13.7 12.3 88 1.1 W 7 9 4 5 1018.8 - 0.0
14/11:00pm 15.4 15.9 12.9 85 1.4 W 2 7 1 4 1019.0 1019.0 0.0
14/10:30pm 15.7 16.8 13.4 86 1.3 CALM 0 0 0 0 1019.2 - 0.0
14/10:00pm 16.0 15.6 12.9 82 1.7 SW 7 9 4 5 1019.1 1019.1 0.0
14/09:30pm 16.0 14.8 12.9 82 1.7 SW 11 17 6 9 1019.1 - 0.0
14/09:00pm 17.1 15.6 13.2 78 2.2 SSW 13 20 7 11 1019.0 1019.0 0.0
14/08:30pm 17.5 15.5 13.8 79 2.1 SSW 17 24 9 13 1018.7 - 0.0
14/08:00pm 16.7 15.4 13.8 83 1.6 SW 13 17 7 9 1018.7 1018.7 0.0

Other Formats:

Comma delimited format used in spreadsheet applications
http://www.bom.gov.au/fwo/IDN60801/IDN60801.94785.axf

JavaScript Object Notation format (JSON) in row-major order
http://www.bom.gov.au/fwo/IDN60801/IDN60801.94785.json